sensor_id;sensor_type;location;lat;lon;timestamp;temperature;humidity
15983;DHT22;14442;50.196;8.096;2023-03-01T00:00:52;21.90;34.70
15983;DHT22;14442;50.196;8.096;2023-03-01T00:03:18;21.90;34.70
15983;DHT22;14442;50.196;8.096;2023-03-01T00:05:45;21.90;34.70
15983;DHT22;14442;50.196;8.096;2023-03-01T00:08:13;21.90;34.50
15983;DHT22;14442;50.196;8.096;2023-03-01T00:10:40;21.90;34.50
15983;DHT22;14442;50.196;8.096;2023-03-01T00:13:06;21.90;34.20
15983;DHT22;14442;50.196;8.096;2023-03-01T00:15:33;21.90;34.50
15983;DHT22;14442;50.196;8.096;2023-03-01T00:18:03;21.90;34.60
15983;DHT22;14442;50.196;8.096;2023-03-01T00:20:30;21.90;34.70
15983;DHT22;14442;50.196;8.096;2023-03-01T00:22:57;21.80;34.20
15983;DHT22;14442;50.196;8.096;2023-03-01T00:25:25;21.70;34.10
15983;DHT22;14442;50.196;8.096;2023-03-01T00:27:51;21.70;34.10
15983;DHT22;14442;50.196;8.096;2023-03-01T00:30:18;21.70;34.90
15983;DHT22;14442;50.196;8.096;2023-03-01T00:32:45;21.70;34.20
15983;DHT22;14442;50.196;8.096;2023-03-01T00:35:11;21.60;34.20
15983;DHT22;14442;50.196;8.096;2023-03-01T00:37:38;21.60;34.10
15983;DHT22;14442;50.196;8.096;2023-03-01T00:40:08;21.60;34.10
15983;DHT22;14442;50.196;8.096;2023-03-01T00:42:36;21.60;34.10
15983;DHT22;14442;50.196;8.096;2023-03-01T00:45:04;21.50;34.00
15983;DHT22;14442;50.196;8.096;2023-03-01T00:47:33;21.50;34.10
15983;DHT22;14442;50.196;8.096;2023-03-01T00:49:59;21.60;34.10
15983;DHT22;14442;50.196;8.096;2023-03-01T00:52:26;21.50;33.90
15983;DHT22;14442;50.196;8.096;2023-03-01T00:54:53;21.50;33.90
15983;DHT22;14442;50.196;8.096;2023-03-01T00:57:20;21.50;33.90
15983;DHT22;14442;50.196;8.096;2023-03-01T00:59:48;21.50;33.90
15983;DHT22;14442;50.196;8.096;2023-03-01T01:02:15;21.50;33.70
15983;DHT22;14442;50.196;8.096;2023-03-01T01:04:41;21.50;33.80
15983;DHT22;14442;50.196;8.096;2023-03-01T01:07:08;21.50;33.60
15983;DHT22;14442;50.196;8.096;2023-03-01T01:09:35;21.50;33.60
15983;DHT22;14442;50.196;8.096;2023-03-01T01:12:02;21.60;33.60
15983;DHT22;14442;50.196;8.096;2023-03-01T01:14:29;21.60;33.50
15983;DHT22;14442;50.196;8.096;2023-03-01T01:16:57;21.60;33.40
15983;DHT22;14442;50.196;8.096;2023-03-01T01:19:24;21.60;33.30
15983;DHT22;14442;50.196;8.096;2023-03-01T01:21:51;21.70;33.20
15983;DHT22;14442;50.196;8.096;2023-03-01T01:24:18;21.70;33.10
15983;DHT22;14442;50.196;8.096;2023-03-01T01:26:45;21.70;33.10
15983;DHT22;14442;50.196;8.096;2023-03-01T01:29:12;21.80;33.10
15983;DHT22;14442;50.196;8.096;2023-03-01T01:31:41;21.80;33.00
15983;DHT22;14442;50.196;8.096;2023-03-01T01:34:14;21.80;32.90
15983;DHT22;14442;50.196;8.096;2023-03-01T01:36:40;21.80;32.80
15983;DHT22;14442;50.196;8.096;2023-03-01T01:39:07;21.90;32.80
15983;DHT22;14442;50.196;8.096;2023-03-01T01:41:40;21.90;32.70
15983;DHT22;14442;50.196;8.096;2023-03-01T01:44:16;21.90;32.60
15983;DHT22;14442;50.196;8.096;2023-03-01T01:46:45;22.00;32.70
15983;DHT22;14442;50.196;8.096;2023-03-01T01:49:23;22.00;32.60
15983;DHT22;14442;50.196;8.096;2023-03-01T01:51:55;22.00;32.50
15983;DHT22;14442;50.196;8.096;2023-03-01T01:54:26;22.00;32.50
15983;DHT22;14442;50.196;8.096;2023-03-01T01:56:57;22.10;32.50
15983;DHT22;14442;50.196;8.096;2023-03-01T01:59:27;22.10;32.50
15983;DHT22;14442;50.196;8.096;2023-03-01T02:01:55;22.10;32.50
15983;DHT22;14442;50.196;8.096;2023-03-01T02:04:25;22.10;32.50
15983;DHT22;14442;50.196;8.096;2023-03-01T02:06:57;22.10;32.50
15983;DHT22;14442;50.196;8.096;2023-03-01T02:09:25;22.10;32.40
15983;DHT22;14442;50.196;8.096;2023-03-01T02:11:53;22.10;32.50
15983;DHT22;14442;50.196;8.096;2023-03-01T02:14:20;22.10;32.50
15983;DHT22;14442;50.196;8.096;2023-03-01T02:16:47;22.10;32.50
15983;DHT22;14442;50.196;8.096;2023-03-01T02:19:27;22.10;32.50
15983;DHT22;14442;50.196;8.096;2023-03-01T02:22:01;22.10;32.50
15983;DHT22;14442;50.196;8.096;2023-03-01T02:24:39;22.10;32.40
15983;DHT22;14442;50.196;8.096;2023-03-01T02:27:09;22.10;32.40
15983;DHT22;14442;50.196;8.096;2023-03-01T02:29:37;22.10;32.40
15983;DHT22;14442;50.196;8.096;2023-03-01T02:32:05;22.10;32.30
15983;DHT22;14442;50.196;8.096;2023-03-01T02:34:32;22.10;32.40
15983;DHT22;14442;50.196;8.096;2023-03-01T02:37:08;22.10;32.30
15983;DHT22;14442;50.196;8.096;2023-03-01T02:39:39;22.20;32.40
15983;DHT22;14442;50.196;8.096;2023-03-01T02:42:11;22.20;32.40
15983;DHT22;14442;50.196;8.096;2023-03-01T02:44:40;22.10;32.30
15983;DHT22;14442;50.196;8.096;2023-03-01T02:47:06;22.20;32.30
15983;DHT22;14442;50.196;8.096;2023-03-01T02:49:34;22.20;32.40
15983;DHT22;14442;50.196;8.096;2023-03-01T02:52:30;22.20;32.40
15983;DHT22;14442;50.196;8.096;2023-03-01T02:55:01;22.10;32.30
15983;DHT22;14442;50.196;8.096;2023-03-01T02:57:30;22.10;32.30
15983;DHT22;14442;50.196;8.096;2023-03-01T03:00:02;22.10;32.30
15983;DHT22;14442;50.196;8.096;2023-03-01T03:02:32;22.10;32.30
15983;DHT22;14442;50.196;8.096;2023-03-01T03:05:08;22.10;32.30
15983;DHT22;14442;50.196;8.096;2023-03-01T03:07:37;22.10;32.30
15983;DHT22;14442;50.196;8.096;2023-03-01T03:10:06;22.00;32.30
15983;DHT22;14442;50.196;8.096;2023-03-01T03:12:33;22.10;32.30
15983;DHT22;14442;50.196;8.096;2023-03-01T03:15:01;22.10;32.30
15983;DHT22;14442;50.196;8.096;2023-03-01T03:17:34;22.10;32.30
15983;DHT22;14442;50.196;8.096;2023-03-01T03:20:00;22.10;32.30
15983;DHT22;14442;50.196;8.096;2023-03-01T03:22:28;22.10;32.40
15983;DHT22;14442;50.196;8.096;2023-03-01T03:24:55;22.10;32.30
15983;DHT22;14442;50.196;8.096;2023-03-01T03:27:21;22.10;32.40
15983;DHT22;14442;50.196;8.096;2023-03-01T03:29:48;22.00;32.30
15983;DHT22;14442;50.196;8.096;2023-03-01T03:32:16;22.00;32.30
15983;DHT22;14442;50.196;8.096;2023-03-01T03:34:43;22.00;32.40
15983;DHT22;14442;50.196;8.096;2023-03-01T03:37:09;22.00;32.40
15983;DHT22;14442;50.196;8.096;2023-03-01T03:39:57;22.00;32.50
15983;DHT22;14442;50.196;8.096;2023-03-01T03:42:23;21.90;32.40
15983;DHT22;14442;50.196;8.096;2023-03-01T03:44:50;21.90;32.50
15983;DHT22;14442;50.196;8.096;2023-03-01T03:47:18;21.90;32.50
15983;DHT22;14442;50.196;8.096;2023-03-01T03:49:44;21.90;32.50
15983;DHT22;14442;50.196;8.096;2023-03-01T03:52:11;21.90;32.50
15983;DHT22;14442;50.196;8.096;2023-03-01T03:54:39;21.90;33.20
15983;DHT22;14442;50.196;8.096;2023-03-01T03:57:05;21.90;32.50
15983;DHT22;14442;50.196;8.096;2023-03-01T03:59:32;21.80;32.50
15983;DHT22;14442;50.196;8.096;2023-03-01T04:01:58;21.80;32.50
15983;DHT22;14442;50.196;8.096;2023-03-01T04:04:27;21.80;32.50
15983;DHT22;14442;50.196;8.096;2023-03-01T04:06:53;21.80;32.50
15983;DHT22;14442;50.196;8.096;2023-03-01T04:09:20;21.80;32.50
15983;DHT22;14442;50.196;8.096;2023-03-01T04:11:47;21.80;32.60
15983;DHT22;14442;50.196;8.096;2023-03-01T04:14:13;21.80;32.50
15983;DHT22;14442;50.196;8.096;2023-03-01T04:16:40;21.70;32.50
15983;DHT22;14442;50.196;8.096;2023-03-01T04:19:06;21.70;32.50
15983;DHT22;14442;50.196;8.096;2023-03-01T04:21:36;21.70;32.60
15983;DHT22;14442;50.196;8.096;2023-03-01T04:24:03;21.70;32.60
15983;DHT22;14442;50.196;8.096;2023-03-01T04:26:30;21.60;32.50
15983;DHT22;14442;50.196;8.096;2023-03-01T04:28:56;21.70;32.60
15983;DHT22;14442;50.196;8.096;2023-03-01T04:31:23;21.60;32.50
15983;DHT22;14442;50.196;8.096;2023-03-01T04:33:52;21.60;32.50
15983;DHT22;14442;50.196;8.096;2023-03-01T04:36:20;21.60;32.60
15983;DHT22;14442;50.196;8.096;2023-03-01T04:38:49;21.60;32.70
15983;DHT22;14442;50.196;8.096;2023-03-01T04:41:18;21.50;32.60
15983;DHT22;14442;50.196;8.096;2023-03-01T04:43:45;21.40;32.60
15983;DHT22;14442;50.196;8.096;2023-03-01T04:46:15;21.40;32.70
15983;DHT22;14442;50.196;8.096;2023-03-01T04:48:43;21.30;32.70
15983;DHT22;14442;50.196;8.096;2023-03-01T04:51:12;21.30;32.80
15983;DHT22;14442;50.196;8.096;2023-03-01T04:53:40;21.30;32.90
15983;DHT22;14442;50.196;8.096;2023-03-01T04:56:08;21.30;33.00
15983;DHT22;14442;50.196;8.096;2023-03-01T04:58:35;21.20;32.70
15983;DHT22;14442;50.196;8.096;2023-03-01T05:01:08;21.20;32.80
15983;DHT22;14442;50.196;8.096;2023-03-01T05:03:41;21.20;32.80
15983;DHT22;14442;50.196;8.096;2023-03-01T05:06:08;21.20;33.00
15983;DHT22;14442;50.196;8.096;2023-03-01T05:08:36;21.10;32.80
15983;DHT22;14442;50.196;8.096;2023-03-01T05:11:03;21.00;32.80
15983;DHT22;14442;50.196;8.096;2023-03-01T05:13:31;21.10;32.80
15983;DHT22;14442;50.196;8.096;2023-03-01T05:16:00;21.10;33.00
15983;DHT22;14442;50.196;8.096;2023-03-01T05:18:28;21.00;32.70
15983;DHT22;14442;50.196;8.096;2023-03-01T05:21:01;21.00;32.80
15983;DHT22;14442;50.196;8.096;2023-03-01T05:23:29;21.00;32.90
15983;DHT22;14442;50.196;8.096;2023-03-01T05:25:57;21.00;32.80
15983;DHT22;14442;50.196;8.096;2023-03-01T05:28:25;21.00;32.90
15983;DHT22;14442;50.196;8.096;2023-03-01T05:30:55;21.00;32.90
15983;DHT22;14442;50.196;8.096;2023-03-01T05:33:23;21.00;32.80
15983;DHT22;14442;50.196;8.096;2023-03-01T05:35:50;21.10;32.80
15983;DHT22;14442;50.196;8.096;2023-03-01T05:38:18;21.10;32.60
15983;DHT22;14442;50.196;8.096;2023-03-01T05:40:47;21.20;32.60
15983;DHT22;14442;50.196;8.096;2023-03-01T05:43:16;21.20;32.40
15983;DHT22;14442;50.196;8.096;2023-03-01T05:45:43;21.30;32.30
15983;DHT22;14442;50.196;8.096;2023-03-01T05:48:12;21.30;32.20
15983;DHT22;14442;50.196;8.096;2023-03-01T05:50:40;21.40;32.30
15983;DHT22;14442;50.196;8.096;2023-03-01T05:53:10;21.30;32.10
15983;DHT22;14442;50.196;8.096;2023-03-01T05:55:38;21.40;32.10
15983;DHT22;14442;50.196;8.096;2023-03-01T05:58:06;21.40;32.10
15983;DHT22;14442;50.196;8.096;2023-03-01T06:00:33;21.50;32.20
15983;DHT22;14442;50.196;8.096;2023-03-01T06:03:00;21.40;32.10
15983;DHT22;14442;50.196;8.096;2023-03-01T06:05:29;21.40;32.20
15983;DHT22;14442;50.196;8.096;2023-03-01T06:07:59;21.40;32.10
15983;DHT22;14442;50.196;8.096;2023-03-01T06:10:26;21.40;32.10
15983;DHT22;14442;50.196;8.096;2023-03-01T06:12:53;21.40;32.20
15983;DHT22;14442;50.196;8.096;2023-03-01T06:15:20;21.40;32.10
15983;DHT22;14442;50.196;8.096;2023-03-01T06:17:47;21.40;32.10
15983;DHT22;14442;50.196;8.096;2023-03-01T06:20:16;21.50;32.20
15983;DHT22;14442;50.196;8.096;2023-03-01T06:22:45;21.50;32.20
15983;DHT22;14442;50.196;8.096;2023-03-01T06:25:13;21.50;32.10
15983;DHT22;14442;50.196;8.096;2023-03-01T06:27:40;21.40;32.00
15983;DHT22;14442;50.196;8.096;2023-03-01T06:30:13;21.50;32.10
15983;DHT22;14442;50.196;8.096;2023-03-01T06:32:40;21.50;32.10
15983;DHT22;14442;50.196;8.096;2023-03-01T06:35:08;21.50;32.10
15983;DHT22;14442;50.196;8.096;2023-03-01T06:37:36;21.50;32.10
15983;DHT22;14442;50.196;8.096;2023-03-01T06:40:05;21.50;32.10
15983;DHT22;14442;50.196;8.096;2023-03-01T06:42:33;21.50;32.10
15983;DHT22;14442;50.196;8.096;2023-03-01T06:45:00;21.60;32.10
15983;DHT22;14442;50.196;8.096;2023-03-01T06:47:27;21.50;32.10
15983;DHT22;14442;50.196;8.096;2023-03-01T06:49:53;21.50;32.10
15983;DHT22;14442;50.196;8.096;2023-03-01T06:52:20;21.60;32.20
15983;DHT22;14442;50.196;8.096;2023-03-01T06:54:47;21.50;32.10
15983;DHT22;14442;50.196;8.096;2023-03-01T06:57:15;21.50;32.20
15983;DHT22;14442;50.196;8.096;2023-03-01T06:59:41;21.50;32.20
15983;DHT22;14442;50.196;8.096;2023-03-01T07:02:10;21.50;32.20
15983;DHT22;14442;50.196;8.096;2023-03-01T07:04:37;21.60;32.20
15983;DHT22;14442;50.196;8.096;2023-03-01T07:07:04;21.60;32.10
15983;DHT22;14442;50.196;8.096;2023-03-01T07:09:31;21.70;32.00
15983;DHT22;14442;50.196;8.096;2023-03-01T07:11:58;21.70;32.00
15983;DHT22;14442;50.196;8.096;2023-03-01T07:14:26;21.70;31.90
15983;DHT22;14442;50.196;8.096;2023-03-01T07:16:53;21.80;32.00
15983;DHT22;14442;50.196;8.096;2023-03-01T07:19:20;21.80;31.90
15983;DHT22;14442;50.196;8.096;2023-03-01T07:21:47;21.80;31.90
15983;DHT22;14442;50.196;8.096;2023-03-01T07:24:14;21.80;31.80
15983;DHT22;14442;50.196;8.096;2023-03-01T07:26:41;21.80;32.00
15983;DHT22;14442;50.196;8.096;2023-03-01T07:29:09;21.70;31.90
15983;DHT22;14442;50.196;8.096;2023-03-01T07:31:38;21.70;32.00
15983;DHT22;14442;50.196;8.096;2023-03-01T07:34:04;21.80;32.10
15983;DHT22;14442;50.196;8.096;2023-03-01T07:36:31;21.80;32.10
15983;DHT22;14442;50.196;8.096;2023-03-01T07:38:58;21.80;32.00
15983;DHT22;14442;50.196;8.096;2023-03-01T07:41:27;21.80;32.00
15983;DHT22;14442;50.196;8.096;2023-03-01T07:43:54;21.80;32.00
15983;DHT22;14442;50.196;8.096;2023-03-01T07:46:21;21.90;32.00
15983;DHT22;14442;50.196;8.096;2023-03-01T07:48:49;21.90;32.00
15983;DHT22;14442;50.196;8.096;2023-03-01T07:51:15;21.90;32.00
15983;DHT22;14442;50.196;8.096;2023-03-01T07:53:44;21.90;31.90
15983;DHT22;14442;50.196;8.096;2023-03-01T07:56:12;21.90;32.00
15983;DHT22;14442;50.196;8.096;2023-03-01T07:58:41;21.90;32.50
15983;DHT22;14442;50.196;8.096;2023-03-01T08:01:09;21.90;32.30
15983;DHT22;14442;50.196;8.096;2023-03-01T08:03:36;22.00;32.30
15983;DHT22;14442;50.196;8.096;2023-03-01T08:06:07;22.00;32.10
15983;DHT22;14442;50.196;8.096;2023-03-01T08:08:34;22.10;32.10
15983;DHT22;14442;50.196;8.096;2023-03-01T08:11:02;22.20;32.20
15983;DHT22;14442;50.196;8.096;2023-03-01T08:13:30;22.20;32.60
15983;DHT22;14442;50.196;8.096;2023-03-01T08:16:01;22.10;32.50
15983;DHT22;14442;50.196;8.096;2023-03-01T08:18:28;22.20;32.60
15983;DHT22;14442;50.196;8.096;2023-03-01T08:20:54;22.20;32.80
15983;DHT22;14442;50.196;8.096;2023-03-01T08:23:23;22.20;32.80
15983;DHT22;14442;50.196;8.096;2023-03-01T08:25:49;22.10;32.80
15983;DHT22;14442;50.196;8.096;2023-03-01T08:28:16;22.20;33.00
15983;DHT22;14442;50.196;8.096;2023-03-01T08:30:43;22.20;33.00
15983;DHT22;14442;50.196;8.096;2023-03-01T08:33:09;22.20;33.00
15983;DHT22;14442;50.196;8.096;2023-03-01T08:35:36;22.30;33.10
15983;DHT22;14442;50.196;8.096;2023-03-01T08:38:03;22.30;33.10
15983;DHT22;14442;50.196;8.096;2023-03-01T08:40:31;22.30;33.00
15983;DHT22;14442;50.196;8.096;2023-03-01T08:42:57;22.30;32.90
15983;DHT22;14442;50.196;8.096;2023-03-01T08:45:24;22.40;33.10
15983;DHT22;14442;50.196;8.096;2023-03-01T08:47:52;22.40;33.10
15983;DHT22;14442;50.196;8.096;2023-03-01T08:50:19;22.40;33.00
15983;DHT22;14442;50.196;8.096;2023-03-01T08:52:45;22.40;32.90
15983;DHT22;14442;50.196;8.096;2023-03-01T08:55:12;22.40;32.90
15983;DHT22;14442;50.196;8.096;2023-03-01T08:57:41;22.40;32.90
15983;DHT22;14442;50.196;8.096;2023-03-01T09:00:09;22.50;32.90
15983;DHT22;14442;50.196;8.096;2023-03-01T09:02:36;22.50;32.90
15983;DHT22;14442;50.196;8.096;2023-03-01T09:05:04;22.50;32.90
15983;DHT22;14442;50.196;8.096;2023-03-01T09:07:31;22.50;32.90
15983;DHT22;14442;50.196;8.096;2023-03-01T09:09:57;22.50;32.90
15983;DHT22;14442;50.196;8.096;2023-03-01T09:12:24;22.50;33.50
15983;DHT22;14442;50.196;8.096;2023-03-01T09:14:52;22.50;34.60
15983;DHT22;14442;50.196;8.096;2023-03-01T09:17:19;22.60;34.70
15983;DHT22;14442;50.196;8.096;2023-03-01T09:19:47;22.60;34.30
15983;DHT22;14442;50.196;8.096;2023-03-01T09:22:13;22.60;36.50
15983;DHT22;14442;50.196;8.096;2023-03-01T09:24:41;22.60;35.80
15983;DHT22;14442;50.196;8.096;2023-03-01T09:27:08;22.60;35.60
15983;DHT22;14442;50.196;8.096;2023-03-01T09:29:36;22.70;36.60
15983;DHT22;14442;50.196;8.096;2023-03-01T09:32:05;22.70;36.50
15983;DHT22;14442;50.196;8.096;2023-03-01T09:34:33;22.70;35.80
15983;DHT22;14442;50.196;8.096;2023-03-01T09:37:20;22.70;35.00
15983;DHT22;14442;50.196;8.096;2023-03-01T09:39:46;22.80;35.30
15983;DHT22;14442;50.196;8.096;2023-03-01T09:42:13;22.80;35.60
15983;DHT22;14442;50.196;8.096;2023-03-01T09:44:45;22.80;35.70
15983;DHT22;14442;50.196;8.096;2023-03-01T09:47:18;22.80;35.70
15983;DHT22;14442;50.196;8.096;2023-03-01T09:49:56;22.80;35.50
15983;DHT22;14442;50.196;8.096;2023-03-01T09:52:30;22.90;35.40
15983;DHT22;14442;50.196;8.096;2023-03-01T09:55:00;22.90;35.50
15983;DHT22;14442;50.196;8.096;2023-03-01T09:57:33;22.90;35.90
15983;DHT22;14442;50.196;8.096;2023-03-01T10:00:14;22.80;35.50
15983;DHT22;14442;50.196;8.096;2023-03-01T10:02:47;22.90;35.70
15983;DHT22;14442;50.196;8.096;2023-03-01T10:05:36;22.90;36.20
15983;DHT22;14442;50.196;8.096;2023-03-01T10:08:28;22.90;35.60
15983;DHT22;14442;50.196;8.096;2023-03-01T10:10:57;22.90;36.20
15983;DHT22;14442;50.196;8.096;2023-03-01T10:13:29;22.90;36.70
15983;DHT22;14442;50.196;8.096;2023-03-01T10:16:03;22.90;35.00
15983;DHT22;14442;50.196;8.096;2023-03-01T10:18:33;22.80;34.20
15983;DHT22;14442;50.196;8.096;2023-03-01T10:21:07;22.80;34.00
15983;DHT22;14442;50.196;8.096;2023-03-01T10:23:36;22.80;35.70
15983;DHT22;14442;50.196;8.096;2023-03-01T10:26:30;22.80;35.40
15983;DHT22;14442;50.196;8.096;2023-03-01T10:29:03;22.80;35.80
15983;DHT22;14442;50.196;8.096;2023-03-01T10:31:38;22.80;36.10
15983;DHT22;14442;50.196;8.096;2023-03-01T10:34:10;22.80;35.70
15983;DHT22;14442;50.196;8.096;2023-03-01T10:36:38;22.80;35.90
15983;DHT22;14442;50.196;8.096;2023-03-01T10:39:12;22.80;35.70
15983;DHT22;14442;50.196;8.096;2023-03-01T10:41:57;22.80;36.30
15983;DHT22;14442;50.196;8.096;2023-03-01T10:44:44;22.80;36.10
15983;DHT22;14442;50.196;8.096;2023-03-01T10:47:17;22.80;35.90
15983;DHT22;14442;50.196;8.096;2023-03-01T10:49:58;22.80;35.90
15983;DHT22;14442;50.196;8.096;2023-03-01T10:52:28;22.80;35.60
15983;DHT22;14442;50.196;8.096;2023-03-01T10:54:57;22.80;35.00
15983;DHT22;14442;50.196;8.096;2023-03-01T10:57:36;22.90;35.60
15983;DHT22;14442;50.196;8.096;2023-03-01T11:00:30;22.90;36.20
15983;DHT22;14442;50.196;8.096;2023-03-01T11:03:11;22.90;36.50
15983;DHT22;14442;50.196;8.096;2023-03-01T11:05:56;23.00;35.50
15983;DHT22;14442;50.196;8.096;2023-03-01T11:08:38;22.90;35.80
15983;DHT22;14442;50.196;8.096;2023-03-01T11:13:54;22.90;35.70
15983;DHT22;14442;50.196;8.096;2023-03-01T11:16:26;22.90;35.90
15983;DHT22;14442;50.196;8.096;2023-03-01T11:19:13;22.90;36.00
15983;DHT22;14442;50.196;8.096;2023-03-01T11:21:47;22.90;35.00
15983;DHT22;14442;50.196;8.096;2023-03-01T11:24:16;22.70;35.30
15983;DHT22;14442;50.196;8.096;2023-03-01T11:26:47;22.70;34.30
15983;DHT22;14442;50.196;8.096;2023-03-01T11:29:21;22.70;34.10
15983;DHT22;14442;50.196;8.096;2023-03-01T11:31:51;22.70;33.90
15983;DHT22;14442;50.196;8.096;2023-03-01T11:34:23;22.70;33.90
15983;DHT22;14442;50.196;8.096;2023-03-01T11:36:56;22.70;33.60
15983;DHT22;14442;50.196;8.096;2023-03-01T11:39:30;22.70;33.70
15983;DHT22;14442;50.196;8.096;2023-03-01T11:42:03;22.70;35.40
15983;DHT22;14442;50.196;8.096;2023-03-01T11:44:35;22.70;35.70
15983;DHT22;14442;50.196;8.096;2023-03-01T11:47:19;22.80;35.60
15983;DHT22;14442;50.196;8.096;2023-03-01T11:50:06;22.80;35.70
15983;DHT22;14442;50.196;8.096;2023-03-01T11:52:43;22.80;36.10
15983;DHT22;14442;50.196;8.096;2023-03-01T11:55:23;22.80;36.10
15983;DHT22;14442;50.196;8.096;2023-03-01T11:58:10;22.80;35.60
15983;DHT22;14442;50.196;8.096;2023-03-01T12:00:58;22.80;35.90
15983;DHT22;14442;50.196;8.096;2023-03-01T12:03:39;22.80;34.80
15983;DHT22;14442;50.196;8.096;2023-03-01T12:06:26;22.80;34.70
15983;DHT22;14442;50.196;8.096;2023-03-01T12:09:06;22.80;34.90
15983;DHT22;14442;50.196;8.096;2023-03-01T12:11:44;22.90;35.10
15983;DHT22;14442;50.196;8.096;2023-03-01T12:14:32;22.90;35.00
15983;DHT22;14442;50.196;8.096;2023-03-01T12:17:20;22.90;35.00
15983;DHT22;14442;50.196;8.096;2023-03-01T12:20:02;22.90;35.10
15983;DHT22;14442;50.196;8.096;2023-03-01T12:22:43;23.00;35.40
15983;DHT22;14442;50.196;8.096;2023-03-01T12:25:22;23.00;34.50
15983;DHT22;14442;50.196;8.096;2023-03-01T12:28:04;23.00;33.90
15983;DHT22;14442;50.196;8.096;2023-03-01T12:30:46;22.90;33.50
15983;DHT22;14442;50.196;8.096;2023-03-01T12:33:23;22.90;33.40
15983;DHT22;14442;50.196;8.096;2023-03-01T12:36:18;22.90;33.90
15983;DHT22;14442;50.196;8.096;2023-03-01T12:38:49;22.90;34.40
15983;DHT22;14442;50.196;8.096;2023-03-01T12:41:42;23.00;34.70
15983;DHT22;14442;50.196;8.096;2023-03-01T12:44:27;23.10;33.60
15983;DHT22;14442;50.196;8.096;2023-03-01T12:49:48;23.30;33.20
15983;DHT22;14442;50.196;8.096;2023-03-01T12:52:20;23.40;33.50
15983;DHT22;14442;50.196;8.096;2023-03-01T12:54:51;23.50;33.60
15983;DHT22;14442;50.196;8.096;2023-03-01T12:57:28;23.50;33.70
15983;DHT22;14442;50.196;8.096;2023-03-01T13:00:18;23.60;33.80
15983;DHT22;14442;50.196;8.096;2023-03-01T13:02:52;23.70;33.90
15983;DHT22;14442;50.196;8.096;2023-03-01T13:05:31;23.70;33.90
15983;DHT22;14442;50.196;8.096;2023-03-01T13:08:05;23.80;33.90
15983;DHT22;14442;50.196;8.096;2023-03-01T13:10:42;23.80;33.90
15983;DHT22;14442;50.196;8.096;2023-03-01T13:13:20;23.90;34.00
15983;DHT22;14442;50.196;8.096;2023-03-01T13:15:47;23.90;33.90
15983;DHT22;14442;50.196;8.096;2023-03-01T13:18:29;24.00;34.20
15983;DHT22;14442;50.196;8.096;2023-03-01T13:20:58;24.10;34.10
15983;DHT22;14442;50.196;8.096;2023-03-01T13:23:28;24.10;34.10
15983;DHT22;14442;50.196;8.096;2023-03-01T13:26:11;24.10;34.20
15983;DHT22;14442;50.196;8.096;2023-03-01T13:28:46;24.10;34.10
15983;DHT22;14442;50.196;8.096;2023-03-01T13:34:46;24.10;34.30
15983;DHT22;14442;50.196;8.096;2023-03-01T13:37:31;24.00;34.50
15983;DHT22;14442;50.196;8.096;2023-03-01T13:40:00;23.90;34.50
15983;DHT22;14442;50.196;8.096;2023-03-01T13:42:36;23.90;34.40
15983;DHT22;14442;50.196;8.096;2023-03-01T13:45:24;23.90;34.30
15983;DHT22;14442;50.196;8.096;2023-03-01T13:47:59;23.90;34.20
15983;DHT22;14442;50.196;8.096;2023-03-01T13:50:29;23.90;34.10
15983;DHT22;14442;50.196;8.096;2023-03-01T13:52:59;23.80;33.90
15983;DHT22;14442;50.196;8.096;2023-03-01T13:55:34;23.80;33.80
15983;DHT22;14442;50.196;8.096;2023-03-01T13:58:13;23.80;33.70
15983;DHT22;14442;50.196;8.096;2023-03-01T14:00:42;23.80;33.60
15983;DHT22;14442;50.196;8.096;2023-03-01T14:03:12;23.80;33.60
15983;DHT22;14442;50.196;8.096;2023-03-01T14:05:39;23.90;33.60
15983;DHT22;14442;50.196;8.096;2023-03-01T14:08:20;23.90;33.60
15983;DHT22;14442;50.196;8.096;2023-03-01T14:11:02;23.90;33.60
15983;DHT22;14442;50.196;8.096;2023-03-01T14:13:46;23.80;33.40
15983;DHT22;14442;50.196;8.096;2023-03-01T14:16:27;23.90;33.50
15983;DHT22;14442;50.196;8.096;2023-03-01T14:19:04;23.90;33.50
15983;DHT22;14442;50.196;8.096;2023-03-01T14:21:35;23.90;33.40
15983;DHT22;14442;50.196;8.096;2023-03-01T14:24:03;23.90;33.30
15983;DHT22;14442;50.196;8.096;2023-03-01T14:26:31;23.90;33.40
15983;DHT22;14442;50.196;8.096;2023-03-01T14:28:58;23.90;33.40
15983;DHT22;14442;50.196;8.096;2023-03-01T14:31:47;23.80;33.30
15983;DHT22;14442;50.196;8.096;2023-03-01T14:34:19;23.80;33.30
15983;DHT22;14442;50.196;8.096;2023-03-01T14:36:46;23.80;33.30
15983;DHT22;14442;50.196;8.096;2023-03-01T14:39:17;23.80;33.30
15983;DHT22;14442;50.196;8.096;2023-03-01T14:41:45;23.80;33.20
15983;DHT22;14442;50.196;8.096;2023-03-01T14:44:15;23.80;33.20
15983;DHT22;14442;50.196;8.096;2023-03-01T14:46:44;23.80;33.20
15983;DHT22;14442;50.196;8.096;2023-03-01T14:49:15;23.80;33.30
15983;DHT22;14442;50.196;8.096;2023-03-01T14:51:47;23.70;33.20
15983;DHT22;14442;50.196;8.096;2023-03-01T14:54:21;23.70;33.40
15983;DHT22;14442;50.196;8.096;2023-03-01T14:56:52;23.80;33.50
15983;DHT22;14442;50.196;8.096;2023-03-01T14:59:21;23.80;33.60
15983;DHT22;14442;50.196;8.096;2023-03-01T15:01:49;23.80;33.70
15983;DHT22;14442;50.196;8.096;2023-03-01T15:04:18;23.80;33.70
15983;DHT22;14442;50.196;8.096;2023-03-01T15:06:46;23.80;33.80
15983;DHT22;14442;50.196;8.096;2023-03-01T15:09:14;23.80;33.90
15983;DHT22;14442;50.196;8.096;2023-03-01T15:11:43;23.80;33.90
15983;DHT22;14442;50.196;8.096;2023-03-01T15:14:26;23.70;33.80
15983;DHT22;14442;50.196;8.096;2023-03-01T15:16:53;23.80;33.90
15983;DHT22;14442;50.196;8.096;2023-03-01T15:19:24;23.70;33.90
15983;DHT22;14442;50.196;8.096;2023-03-01T15:21:54;23.70;33.90
15983;DHT22;14442;50.196;8.096;2023-03-01T15:24:24;23.70;34.00
15983;DHT22;14442;50.196;8.096;2023-03-01T15:26:55;23.70;34.10
15983;DHT22;14442;50.196;8.096;2023-03-01T15:29:24;23.60;33.90
15983;DHT22;14442;50.196;8.096;2023-03-01T15:31:57;23.60;34.00
15983;DHT22;14442;50.196;8.096;2023-03-01T15:34:27;23.60;34.00
15983;DHT22;14442;50.196;8.096;2023-03-01T15:36:56;23.50;33.90
15983;DHT22;14442;50.196;8.096;2023-03-01T15:39:31;23.50;34.00
15983;DHT22;14442;50.196;8.096;2023-03-01T15:41:59;23.50;33.90
15983;DHT22;14442;50.196;8.096;2023-03-01T15:44:27;23.50;33.90
15983;DHT22;14442;50.196;8.096;2023-03-01T15:46:54;23.50;34.00
15983;DHT22;14442;50.196;8.096;2023-03-01T15:49:33;23.40;34.00
15983;DHT22;14442;50.196;8.096;2023-03-01T15:52:02;23.40;34.00
15983;DHT22;14442;50.196;8.096;2023-03-01T15:54:29;23.40;33.90
15983;DHT22;14442;50.196;8.096;2023-03-01T15:56:56;23.40;33.80
15983;DHT22;14442;50.196;8.096;2023-03-01T15:59:23;23.30;33.70
15983;DHT22;14442;50.196;8.096;2023-03-01T16:01:50;23.30;33.80